sensor_id;sensor_type;location;lat;lon;timestamp;P1;durP1;ratioP1;P2;durP2;ratioP2
18580;SDS011;9420;50.876;7.012;2023-04-25T00:00:45;14.50;;;4.73;;
18580;SDS011;9420;50.876;7.012;2023-04-25T00:03:12;7.80;;;4.30;;
18580;SDS011;9420;50.876;7.012;2023-04-25T00:05:40;10.37;;;4.00;;
18580;SDS011;9420;50.876;7.012;2023-04-25T00:10:47;15.57;;;4.37;;
18580;SDS011;9420;50.876;7.012;2023-04-25T00:13:19;11.00;;;4.07;;
18580;SDS011;9420;50.876;7.012;2023-04-25T00:15:47;16.47;;;4.33;;
18580;SDS011;9420;50.876;7.012;2023-04-25T00:18:14;13.23;;;3.83;;
18580;SDS011;9420;50.876;7.012;2023-04-25T00:20:42;13.53;;;4.40;;
18580;SDS011;9420;50.876;7.012;2023-04-25T00:23:11;16.17;;;4.70;;
18580;SDS011;9420;50.876;7.012;2023-04-25T00:25:42;12.53;;;4.43;;
18580;SDS011;9420;50.876;7.012;2023-04-25T00:28:09;14.93;;;5.33;;
18580;SDS011;9420;50.876;7.012;2023-04-25T00:30:38;14.10;;;5.13;;
18580;SDS011;9420;50.876;7.012;2023-04-25T00:33:05;14.07;;;4.67;;
18580;SDS011;9420;50.876;7.012;2023-04-25T00:35:33;14.77;;;4.03;;
18580;SDS011;9420;50.876;7.012;2023-04-25T00:38:02;10.70;;;4.33;;
18580;SDS011;9420;50.876;7.012;2023-04-25T00:40:29;13.47;;;4.47;;
18580;SDS011;9420;50.876;7.012;2023-04-25T00:42:55;8.60;;;4.57;;
18580;SDS011;9420;50.876;7.012;2023-04-25T00:45:22;6.93;;;4.13;;
18580;SDS011;9420;50.876;7.012;2023-04-25T00:47:56;14.60;;;5.30;;
18580;SDS011;9420;50.876;7.012;2023-04-25T00:50:23;11.20;;;5.20;;
18580;SDS011;9420;50.876;7.012;2023-04-25T00:52:50;14.03;;;5.00;;
18580;SDS011;9420;50.876;7.012;2023-04-25T00:55:18;15.63;;;4.70;;
18580;SDS011;9420;50.876;7.012;2023-04-25T00:57:46;12.27;;;5.17;;
18580;SDS011;9420;50.876;7.012;2023-04-25T01:00:13;13.50;;;5.60;;
18580;SDS011;9420;50.876;7.012;2023-04-25T01:02:41;15.23;;;4.60;;
18580;SDS011;9420;50.876;7.012;2023-04-25T01:05:11;15.97;;;5.67;;
18580;SDS011;9420;50.876;7.012;2023-04-25T01:07:44;14.57;;;5.07;;
18580;SDS011;9420;50.876;7.012;2023-04-25T01:10:12;17.03;;;5.90;;
18580;SDS011;9420;50.876;7.012;2023-04-25T01:12:40;13.63;;;5.13;;
18580;SDS011;9420;50.876;7.012;2023-04-25T01:15:08;12.30;;;4.70;;
18580;SDS011;9420;50.876;7.012;2023-04-25T01:17:35;11.20;;;4.90;;
18580;SDS011;9420;50.876;7.012;2023-04-25T01:20:03;10.87;;;5.63;;
18580;SDS011;9420;50.876;7.012;2023-04-25T01:22:33;10.37;;;4.20;;
18580;SDS011;9420;50.876;7.012;2023-04-25T01:25:01;17.60;;;5.87;;
18580;SDS011;9420;50.876;7.012;2023-04-25T01:27:28;17.33;;;4.60;;
18580;SDS011;9420;50.876;7.012;2023-04-25T01:29:56;19.70;;;5.93;;
18580;SDS011;9420;50.876;7.012;2023-04-25T01:32:23;8.60;;;4.43;;
18580;SDS011;9420;50.876;7.012;2023-04-25T01:34:51;12.80;;;4.87;;
18580;SDS011;9420;50.876;7.012;2023-04-25T01:37:19;14.00;;;6.13;;
18580;SDS011;9420;50.876;7.012;2023-04-25T01:39:47;11.20;;;5.03;;
18580;SDS011;9420;50.876;7.012;2023-04-25T01:42:15;11.57;;;4.70;;
18580;SDS011;9420;50.876;7.012;2023-04-25T01:44:42;14.17;;;5.20;;
18580;SDS011;9420;50.876;7.012;2023-04-25T01:47:09;16.17;;;4.70;;
18580;SDS011;9420;50.876;7.012;2023-04-25T01:49:36;17.90;;;5.30;;
18580;SDS011;9420;50.876;7.012;2023-04-25T01:52:03;14.93;;;5.20;;
18580;SDS011;9420;50.876;7.012;2023-04-25T01:54:30;11.00;;;4.90;;
18580;SDS011;9420;50.876;7.012;2023-04-25T01:56:59;11.30;;;5.60;;
18580;SDS011;9420;50.876;7.012;2023-04-25T01:59:26;11.40;;;5.27;;
18580;SDS011;9420;50.876;7.012;2023-04-25T02:01:53;11.37;;;5.30;;
18580;SDS011;9420;50.876;7.012;2023-04-25T02:04:20;13.03;;;5.53;;
18580;SDS011;9420;50.876;7.012;2023-04-25T02:06:47;16.70;;;5.57;;
18580;SDS011;9420;50.876;7.012;2023-04-25T02:09:14;13.97;;;5.87;;
18580;SDS011;9420;50.876;7.012;2023-04-25T02:11:41;8.73;;;5.17;;
18580;SDS011;9420;50.876;7.012;2023-04-25T02:14:10;14.07;;;4.97;;
18580;SDS011;9420;50.876;7.012;2023-04-25T02:16:37;14.17;;;5.73;;
18580;SDS011;9420;50.876;7.012;2023-04-25T02:19:04;16.10;;;5.60;;
18580;SDS011;9420;50.876;7.012;2023-04-25T02:21:33;17.63;;;6.00;;
18580;SDS011;9420;50.876;7.012;2023-04-25T02:24:01;12.27;;;5.57;;
18580;SDS011;9420;50.876;7.012;2023-04-25T02:26:28;16.40;;;5.97;;
18580;SDS011;9420;50.876;7.012;2023-04-25T02:28:58;12.20;;;4.97;;
18580;SDS011;9420;50.876;7.012;2023-04-25T02:31:27;18.30;;;5.77;;
18580;SDS011;9420;50.876;7.012;2023-04-25T02:33:54;12.53;;;5.07;;
18580;SDS011;9420;50.876;7.012;2023-04-25T02:36:21;17.03;;;5.63;;
18580;SDS011;9420;50.876;7.012;2023-04-25T02:38:49;13.20;;;5.87;;
18580;SDS011;9420;50.876;7.012;2023-04-25T02:41:17;14.20;;;5.37;;
18580;SDS011;9420;50.876;7.012;2023-04-25T02:43:44;19.03;;;7.57;;
18580;SDS011;9420;50.876;7.012;2023-04-25T02:46:11;8.70;;;4.97;;
18580;SDS011;9420;50.876;7.012;2023-04-25T02:48:39;13.67;;;5.73;;
18580;SDS011;9420;50.876;7.012;2023-04-25T02:51:06;18.13;;;5.30;;
18580;SDS011;9420;50.876;7.012;2023-04-25T02:53:33;12.40;;;5.87;;
18580;SDS011;9420;50.876;7.012;2023-04-25T02:56:00;14.83;;;5.57;;
18580;SDS011;9420;50.876;7.012;2023-04-25T02:58:27;19.10;;;5.30;;
18580;SDS011;9420;50.876;7.012;2023-04-25T03:00:54;18.63;;;5.93;;
18580;SDS011;9420;50.876;7.012;2023-04-25T03:03:21;10.33;;;5.13;;
18580;SDS011;9420;50.876;7.012;2023-04-25T03:05:50;14.37;;;4.30;;
18580;SDS011;9420;50.876;7.012;2023-04-25T03:08:18;14.73;;;5.53;;
18580;SDS011;9420;50.876;7.012;2023-04-25T03:10:48;12.53;;;5.43;;
18580;SDS011;9420;50.876;7.012;2023-04-25T03:13:20;11.17;;;4.43;;
18580;SDS011;9420;50.876;7.012;2023-04-25T03:15:47;15.37;;;5.83;;
18580;SDS011;9420;50.876;7.012;2023-04-25T03:18:14;14.07;;;4.63;;
18580;SDS011;9420;50.876;7.012;2023-04-25T03:20:41;6.23;;;3.83;;
18580;SDS011;9420;50.876;7.012;2023-04-25T03:23:10;9.63;;;4.50;;
18580;SDS011;9420;50.876;7.012;2023-04-25T03:25:37;9.07;;;3.93;;
18580;SDS011;9420;50.876;7.012;2023-04-25T03:28:04;14.43;;;4.03;;
18580;SDS011;9420;50.876;7.012;2023-04-25T03:30:31;15.07;;;4.60;;
18580;SDS011;9420;50.876;7.012;2023-04-25T03:32:58;11.87;;;4.17;;
18580;SDS011;9420;50.876;7.012;2023-04-25T03:35:25;9.97;;;4.07;;
18580;SDS011;9420;50.876;7.012;2023-04-25T03:37:52;11.00;;;3.50;;
18580;SDS011;9420;50.876;7.012;2023-04-25T03:40:21;11.67;;;4.47;;
18580;SDS011;9420;50.876;7.012;2023-04-25T03:42:48;11.43;;;4.27;;
18580;SDS011;9420;50.876;7.012;2023-04-25T03:45:15;14.70;;;4.27;;
18580;SDS011;9420;50.876;7.012;2023-04-25T03:47:42;10.73;;;4.37;;
18580;SDS011;9420;50.876;7.012;2023-04-25T03:50:09;9.60;;;4.87;;
18580;SDS011;9420;50.876;7.012;2023-04-25T03:52:36;12.13;;;5.13;;
18580;SDS011;9420;50.876;7.012;2023-04-25T03:55:03;10.27;;;4.30;;
18580;SDS011;9420;50.876;7.012;2023-04-25T03:57:33;12.90;;;4.60;;
18580;SDS011;9420;50.876;7.012;2023-04-25T04:00:00;12.50;;;4.07;;
18580;SDS011;9420;50.876;7.012;2023-04-25T04:02:30;9.30;;;4.40;;
18580;SDS011;9420;50.876;7.012;2023-04-25T04:04:58;11.50;;;4.47;;
18580;SDS011;9420;50.876;7.012;2023-04-25T04:07:25;7.57;;;4.33;;
18580;SDS011;9420;50.876;7.012;2023-04-25T04:09:52;14.70;;;5.50;;
18580;SDS011;9420;50.876;7.012;2023-04-25T04:12:19;15.50;;;4.97;;
18580;SDS011;9420;50.876;7.012;2023-04-25T04:14:47;11.00;;;4.00;;
18580;SDS011;9420;50.876;7.012;2023-04-25T04:17:15;18.77;;;5.23;;
18580;SDS011;9420;50.876;7.012;2023-04-25T04:19:42;15.27;;;5.33;;
18580;SDS011;9420;50.876;7.012;2023-04-25T04:22:09;19.20;;;5.83;;
18580;SDS011;9420;50.876;7.012;2023-04-25T04:24:36;14.23;;;5.60;;
18580;SDS011;9420;50.876;7.012;2023-04-25T04:27:05;12.80;;;4.77;;
18580;SDS011;9420;50.876;7.012;2023-04-25T04:29:32;11.93;;;4.73;;
18580;SDS011;9420;50.876;7.012;2023-04-25T04:32:01;13.17;;;4.80;;
18580;SDS011;9420;50.876;7.012;2023-04-25T04:34:28;13.60;;;6.37;;
18580;SDS011;9420;50.876;7.012;2023-04-25T04:36:56;13.07;;;5.40;;
18580;SDS011;9420;50.876;7.012;2023-04-25T04:39:23;9.83;;;4.87;;
18580;SDS011;9420;50.876;7.012;2023-04-25T04:41:51;10.40;;;5.50;;
18580;SDS011;9420;50.876;7.012;2023-04-25T04:44:18;12.33;;;4.60;;
18580;SDS011;9420;50.876;7.012;2023-04-25T04:46:46;13.10;;;6.10;;
18580;SDS011;9420;50.876;7.012;2023-04-25T04:49:14;14.77;;;5.30;;
18580;SDS011;9420;50.876;7.012;2023-04-25T04:51:42;10.77;;;4.57;;
18580;SDS011;9420;50.876;7.012;2023-04-25T04:54:10;10.23;;;5.00;;
18580;SDS011;9420;50.876;7.012;2023-04-25T04:56:37;20.33;;;5.30;;
18580;SDS011;9420;50.876;7.012;2023-04-25T04:59:06;13.10;;;4.70;;
18580;SDS011;9420;50.876;7.012;2023-04-25T05:01:33;15.13;;;4.17;;
18580;SDS011;9420;50.876;7.012;2023-04-25T05:04:02;11.50;;;4.93;;
18580;SDS011;9420;50.876;7.012;2023-04-25T05:06:33;13.47;;;4.93;;
18580;SDS011;9420;50.876;7.012;2023-04-25T05:09:00;12.60;;;4.53;;
18580;SDS011;9420;50.876;7.012;2023-04-25T05:11:27;16.23;;;5.47;;
18580;SDS011;9420;50.876;7.012;2023-04-25T05:13:54;12.57;;;4.70;;
18580;SDS011;9420;50.876;7.012;2023-04-25T05:16:21;13.00;;;5.40;;
18580;SDS011;9420;50.876;7.012;2023-04-25T05:18:48;28.67;;;5.90;;
18580;SDS011;9420;50.876;7.012;2023-04-25T05:21:15;16.00;;;5.73;;
18580;SDS011;9420;50.876;7.012;2023-04-25T05:23:43;20.60;;;5.60;;
18580;SDS011;9420;50.876;7.012;2023-04-25T05:26:11;22.67;;;6.80;;
18580;SDS011;9420;50.876;7.012;2023-04-25T05:28:39;21.47;;;6.00;;
18580;SDS011;9420;50.876;7.012;2023-04-25T05:31:07;13.30;;;4.57;;
18580;SDS011;9420;50.876;7.012;2023-04-25T05:33:36;12.10;;;4.87;;
18580;SDS011;9420;50.876;7.012;2023-04-25T05:36:04;17.93;;;5.37;;
18580;SDS011;9420;50.876;7.012;2023-04-25T05:38:32;13.17;;;5.60;;
18580;SDS011;9420;50.876;7.012;2023-04-25T05:41:01;16.57;;;6.30;;
18580;SDS011;9420;50.876;7.012;2023-04-25T05:43:32;18.13;;;5.17;;
18580;SDS011;9420;50.876;7.012;2023-04-25T05:46:00;18.93;;;6.07;;
18580;SDS011;9420;50.876;7.012;2023-04-25T05:48:27;19.73;;;5.67;;
18580;SDS011;9420;50.876;7.012;2023-04-25T05:50:55;14.97;;;4.87;;
18580;SDS011;9420;50.876;7.012;2023-04-25T05:53:22;11.77;;;5.23;;
18580;SDS011;9420;50.876;7.012;2023-04-25T05:55:49;24.60;;;5.97;;
18580;SDS011;9420;50.876;7.012;2023-04-25T05:58:18;19.00;;;5.57;;
18580;SDS011;9420;50.876;7.012;2023-04-25T06:00:45;29.07;;;6.90;;
18580;SDS011;9420;50.876;7.012;2023-04-25T06:03:12;13.57;;;5.47;;
18580;SDS011;9420;50.876;7.012;2023-04-25T06:05:40;18.63;;;5.23;;
18580;SDS011;9420;50.876;7.012;2023-04-25T06:08:07;19.73;;;6.17;;
18580;SDS011;9420;50.876;7.012;2023-04-25T06:10:35;20.33;;;6.23;;
18580;SDS011;9420;50.876;7.012;2023-04-25T06:13:03;14.63;;;5.67;;
18580;SDS011;9420;50.876;7.012;2023-04-25T06:15:32;16.43;;;6.13;;
18580;SDS011;9420;50.876;7.012;2023-04-25T06:18:00;20.07;;;6.23;;
18580;SDS011;9420;50.876;7.012;2023-04-25T06:20:27;23.70;;;6.47;;
18580;SDS011;9420;50.876;7.012;2023-04-25T06:22:54;16.13;;;5.27;;
18580;SDS011;9420;50.876;7.012;2023-04-25T06:25:21;27.10;;;7.30;;
18580;SDS011;9420;50.876;7.012;2023-04-25T06:27:48;19.57;;;5.57;;
18580;SDS011;9420;50.876;7.012;2023-04-25T06:30:15;16.03;;;6.37;;
18580;SDS011;9420;50.876;7.012;2023-04-25T06:32:44;11.67;;;4.77;;
18580;SDS011;9420;50.876;7.012;2023-04-25T06:37:52;11.43;;;4.77;;
18580;SDS011;9420;50.876;7.012;2023-04-25T06:40:19;15.50;;;4.70;;
18580;SDS011;9420;50.876;7.012;2023-04-25T06:45:17;16.40;;;4.83;;
18580;SDS011;9420;50.876;7.012;2023-04-25T06:47:55;24.00;;;5.43;;
18580;SDS011;9420;50.876;7.012;2023-04-25T06:50:25;11.47;;;5.03;;
18580;SDS011;9420;50.876;7.012;2023-04-25T06:52:52;23.50;;;5.40;;
18580;SDS011;9420;50.876;7.012;2023-04-25T06:55:19;25.07;;;4.90;;
18580;SDS011;9420;50.876;7.012;2023-04-25T06:57:46;16.87;;;5.67;;
18580;SDS011;9420;50.876;7.012;2023-04-25T07:00:14;14.87;;;4.07;;
18580;SDS011;9420;50.876;7.012;2023-04-25T07:02:42;18.17;;;4.77;;
18580;SDS011;9420;50.876;7.012;2023-04-25T07:05:12;16.53;;;5.20;;
18580;SDS011;9420;50.876;7.012;2023-04-25T07:07:41;20.87;;;5.77;;
18580;SDS011;9420;50.876;7.012;2023-04-25T07:10:08;15.47;;;6.00;;
18580;SDS011;9420;50.876;7.012;2023-04-25T07:12:35;17.03;;;4.80;;
18580;SDS011;9420;50.876;7.012;2023-04-25T07:15:03;12.87;;;4.17;;
18580;SDS011;9420;50.876;7.012;2023-04-25T07:17:33;18.90;;;5.47;;
18580;SDS011;9420;50.876;7.012;2023-04-25T07:20:00;12.00;;;4.63;;
18580;SDS011;9420;50.876;7.012;2023-04-25T07:22:29;12.10;;;4.93;;
18580;SDS011;9420;50.876;7.012;2023-04-25T07:24:57;13.87;;;5.00;;
18580;SDS011;9420;50.876;7.012;2023-04-25T07:27:24;18.30;;;5.27;;
18580;SDS011;9420;50.876;7.012;2023-04-25T07:29:51;17.93;;;4.73;;
18580;SDS011;9420;50.876;7.012;2023-04-25T07:32:18;17.50;;;4.60;;
18580;SDS011;9420;50.876;7.012;2023-04-25T07:34:45;20.30;;;4.90;;
18580;SDS011;9420;50.876;7.012;2023-04-25T07:37:13;8.83;;;3.80;;
18580;SDS011;9420;50.876;7.012;2023-04-25T07:39:41;8.10;;;3.73;;
18580;SDS011;9420;50.876;7.012;2023-04-25T07:42:08;14.33;;;4.90;;
18580;SDS011;9420;50.876;7.012;2023-04-25T07:44:35;9.37;;;4.03;;
18580;SDS011;9420;50.876;7.012;2023-04-25T07:47:04;14.13;;;4.07;;
18580;SDS011;9420;50.876;7.012;2023-04-25T07:49:32;6.97;;;3.27;;
18580;SDS011;9420;50.876;7.012;2023-04-25T07:52:03;13.27;;;3.93;;
18580;SDS011;9420;50.876;7.012;2023-04-25T07:54:32;16.00;;;4.10;;
18580;SDS011;9420;50.876;7.012;2023-04-25T07:57:00;14.70;;;3.53;;
18580;SDS011;9420;50.876;7.012;2023-04-25T07:59:28;10.77;;;3.57;;
18580;SDS011;9420;50.876;7.012;2023-04-25T08:01:55;15.77;;;2.90;;
18580;SDS011;9420;50.876;7.012;2023-04-25T08:04:23;15.10;;;3.37;;
18580;SDS011;9420;50.876;7.012;2023-04-25T08:06:50;12.43;;;3.83;;
18580;SDS011;9420;50.876;7.012;2023-04-25T08:09:18;11.60;;;3.63;;
18580;SDS011;9420;50.876;7.012;2023-04-25T08:11:46;8.87;;;2.47;;
18580;SDS011;9420;50.876;7.012;2023-04-25T08:14:15;14.97;;;3.53;;
18580;SDS011;9420;50.876;7.012;2023-04-25T08:16:42;8.87;;;2.97;;
18580;SDS011;9420;50.876;7.012;2023-04-25T08:19:09;11.33;;;2.80;;
18580;SDS011;9420;50.876;7.012;2023-04-25T08:21:37;11.53;;;3.60;;
18580;SDS011;9420;50.876;7.012;2023-04-25T08:24:04;9.13;;;3.80;;
18580;SDS011;9420;50.876;7.012;2023-04-25T08:26:31;7.03;;;3.03;;
18580;SDS011;9420;50.876;7.012;2023-04-25T08:28:59;10.47;;;4.73;;
18580;SDS011;9420;50.876;7.012;2023-04-25T08:31:27;7.03;;;3.57;;
18580;SDS011;9420;50.876;7.012;2023-04-25T08:33:54;10.33;;;4.77;;
18580;SDS011;9420;50.876;7.012;2023-04-25T08:36:22;13.13;;;4.00;;
18580;SDS011;9420;50.876;7.012;2023-04-25T08:38:49;13.43;;;3.90;;
18580;SDS011;9420;50.876;7.012;2023-04-25T08:41:16;12.00;;;3.93;;
18580;SDS011;9420;50.876;7.012;2023-04-25T08:43:47;7.97;;;2.80;;
18580;SDS011;9420;50.876;7.012;2023-04-25T08:46:17;9.97;;;3.37;;
18580;SDS011;9420;50.876;7.012;2023-04-25T08:48:46;8.07;;;2.40;;
18580;SDS011;9420;50.876;7.012;2023-04-25T08:51:17;10.10;;;2.03;;
18580;SDS011;9420;50.876;7.012;2023-04-25T08:53:50;11.67;;;2.47;;
18580;SDS011;9420;50.876;7.012;2023-04-25T08:56:18;9.97;;;2.90;;
18580;SDS011;9420;50.876;7.012;2023-04-25T08:58:48;11.80;;;2.53;;
18580;SDS011;9420;50.876;7.012;2023-04-25T09:01:16;7.23;;;2.93;;
18580;SDS011;9420;50.876;7.012;2023-04-25T09:03:44;14.20;;;3.30;;
18580;SDS011;9420;50.876;7.012;2023-04-25T09:06:13;15.07;;;3.37;;
18580;SDS011;9420;50.876;7.012;2023-04-25T09:08:43;11.67;;;2.97;;
18580;SDS011;9420;50.876;7.012;2023-04-25T09:11:11;10.53;;;3.17;;
18580;SDS011;9420;50.876;7.012;2023-04-25T09:13:39;11.37;;;2.10;;
18580;SDS011;9420;50.876;7.012;2023-04-25T09:16:06;7.60;;;2.57;;
18580;SDS011;9420;50.876;7.012;2023-04-25T09:18:34;10.07;;;2.37;;
18580;SDS011;9420;50.876;7.012;2023-04-25T09:21:04;11.23;;;2.20;;
18580;SDS011;9420;50.876;7.012;2023-04-25T09:23:40;12.03;;;2.60;;
18580;SDS011;9420;50.876;7.012;2023-04-25T09:26:10;9.90;;;2.23;;
18580;SDS011;9420;50.876;7.012;2023-04-25T09:28:40;13.93;;;3.03;;
18580;SDS011;9420;50.876;7.012;2023-04-25T09:31:09;7.73;;;2.50;;
18580;SDS011;9420;50.876;7.012;2023-04-25T09:33:37;13.20;;;3.67;;
18580;SDS011;9420;50.876;7.012;2023-04-25T09:36:05;10.07;;;2.73;;
18580;SDS011;9420;50.876;7.012;2023-04-25T09:38:41;11.20;;;2.70;;
18580;SDS011;9420;50.876;7.012;2023-04-25T09:41:10;12.53;;;2.43;;
18580;SDS011;9420;50.876;7.012;2023-04-25T09:43:38;5.43;;;2.10;;
18580;SDS011;9420;50.876;7.012;2023-04-25T09:46:07;8.57;;;2.57;;
18580;SDS011;9420;50.876;7.012;2023-04-25T09:48:36;11.13;;;2.00;;
18580;SDS011;9420;50.876;7.012;2023-04-25T09:51:07;10.37;;;2.50;;
18580;SDS011;9420;50.876;7.012;2023-04-25T09:53:36;8.60;;;2.30;;
18580;SDS011;9420;50.876;7.012;2023-04-25T09:56:08;11.30;;;2.60;;
18580;SDS011;9420;50.876;7.012;2023-04-25T09:58:37;8.30;;;2.23;;
18580;SDS011;9420;50.876;7.012;2023-04-25T10:01:06;4.67;;;1.60;;
18580;SDS011;9420;50.876;7.012;2023-04-25T10:03:35;10.63;;;3.03;;
18580;SDS011;9420;50.876;7.012;2023-04-25T10:06:07;8.67;;;2.77;;
18580;SDS011;9420;50.876;7.012;2023-04-25T10:08:38;9.47;;;2.23;;
18580;SDS011;9420;50.876;7.012;2023-04-25T10:11:06;9.67;;;2.37;;
18580;SDS011;9420;50.876;7.012;2023-04-25T10:13:35;7.93;;;2.00;;
18580;SDS011;9420;50.876;7.012;2023-04-25T10:16:03;8.97;;;2.33;;
18580;SDS011;9420;50.876;7.012;2023-04-25T10:18:31;8.17;;;2.23;;
18580;SDS011;9420;50.876;7.012;2023-04-25T10:21:00;7.17;;;2.40;;
18580;SDS011;9420;50.876;7.012;2023-04-25T10:23:29;10.00;;;2.10;;
18580;SDS011;9420;50.876;7.012;2023-04-25T10:25:59;5.10;;;2.80;;
18580;SDS011;9420;50.876;7.012;2023-04-25T10:28:29;7.93;;;2.17;;
18580;SDS011;9420;50.876;7.012;2023-04-25T10:31:26;18.83;;;2.47;;
18580;SDS011;9420;50.876;7.012;2023-04-25T10:33:55;9.83;;;2.47;;
18580;SDS011;9420;50.876;7.012;2023-04-25T10:36:23;11.07;;;2.37;;
18580;SDS011;9420;50.876;7.012;2023-04-25T10:38:52;7.50;;;3.07;;
18580;SDS011;9420;50.876;7.012;2023-04-25T10:41:20;13.17;;;3.00;;
18580;SDS011;9420;50.876;7.012;2023-04-25T10:43:48;6.73;;;2.53;;
18580;SDS011;9420;50.876;7.012;2023-04-25T10:46:26;13.03;;;3.13;;
18580;SDS011;9420;50.876;7.012;2023-04-25T10:48:56;9.70;;;2.83;;
18580;SDS011;9420;50.876;7.012;2023-04-25T10:51:26;8.83;;;1.80;;
18580;SDS011;9420;50.876;7.012;2023-04-25T10:53:56;10.33;;;3.33;;
18580;SDS011;9420;50.876;7.012;2023-04-25T10:56:26;5.90;;;2.10;;
18580;SDS011;9420;50.876;7.012;2023-04-25T10:59:05;14.30;;;2.70;;
18580;SDS011;9420;50.876;7.012;2023-04-25T11:01:53;6.77;;;2.00;;
18580;SDS011;9420;50.876;7.012;2023-04-25T11:04:20;8.07;;;2.63;;
18580;SDS011;9420;50.876;7.012;2023-04-25T11:07:04;12.87;;;2.30;;
18580;SDS011;9420;50.876;7.012;2023-04-25T11:09:40;4.37;;;1.83;;
18580;SDS011;9420;50.876;7.012;2023-04-25T11:12:07;8.73;;;1.97;;
18580;SDS011;9420;50.876;7.012;2023-04-25T11:14:36;9.97;;;2.37;;
18580;SDS011;9420;50.876;7.012;2023-04-25T11:17:05;2.47;;;1.53;;
18580;SDS011;9420;50.876;7.012;2023-04-25T11:19:32;5.67;;;1.93;;
18580;SDS011;9420;50.876;7.012;2023-04-25T11:22:00;9.70;;;2.67;;
18580;SDS011;9420;50.876;7.012;2023-04-25T11:24:30;5.40;;;1.70;;
18580;SDS011;9420;50.876;7.012;2023-04-25T11:26:59;6.23;;;2.40;;
18580;SDS011;9420;50.876;7.012;2023-04-25T11:29:29;7.10;;;2.27;;
18580;SDS011;9420;50.876;7.012;2023-04-25T11:31:58;13.70;;;2.23;;
18580;SDS011;9420;50.876;7.012;2023-04-25T11:34:27;6.97;;;2.07;;
18580;SDS011;9420;50.876;7.012;2023-04-25T11:36:56;6.40;;;1.57;;
18580;SDS011;9420;50.876;7.012;2023-04-25T11:39:24;9.13;;;2.13;;
18580;SDS011;9420;50.876;7.012;2023-04-25T11:41:52;9.13;;;2.60;;
18580;SDS011;9420;50.876;7.012;2023-04-25T11:44:23;10.03;;;1.40;;
18580;SDS011;9420;50.876;7.012;2023-04-25T11:46:51;7.50;;;1.80;;
18580;SDS011;9420;50.876;7.012;2023-04-25T11:49:18;5.93;;;1.60;;
18580;SDS011;9420;50.876;7.012;2023-04-25T11:51:48;10.20;;;2.50;;
18580;SDS011;9420;50.876;7.012;2023-04-25T11:54:15;4.27;;;1.77;;
18580;SDS011;9420;50.876;7.012;2023-04-25T11:56:43;4.77;;;2.00;;
18580;SDS011;9420;50.876;7.012;2023-04-25T11:59:11;5.90;;;1.80;;
18580;SDS011;9420;50.876;7.012;2023-04-25T12:01:40;9.50;;;2.07;;
18580;SDS011;9420;50.876;7.012;2023-04-25T12:04:14;5.97;;;1.50;;
18580;SDS011;9420;50.876;7.012;2023-04-25T12:06:43;5.67;;;1.80;;
18580;SDS011;9420;50.876;7.012;2023-04-25T12:09:14;3.97;;;1.40;;
18580;SDS011;9420;50.876;7.012;2023-04-25T12:11:44;11.73;;;2.00;;
18580;SDS011;9420;50.876;7.012;2023-04-25T12:14:19;2.87;;;1.20;;
18580;SDS011;9420;50.876;7.012;2023-04-25T12:16:49;7.20;;;1.80;;
18580;SDS011;9420;50.876;7.012;2023-04-25T12:19:19;8.80;;;2.00;;
18580;SDS011;9420;50.876;7.012;2023-04-25T12:21:47;5.63;;;1.33;;
18580;SDS011;9420;50.876;7.012;2023-04-25T12:24:17;10.03;;;2.00;;
18580;SDS011;9420;50.876;7.012;2023-04-25T12:26:50;3.60;;;1.20;;
18580;SDS011;9420;50.876;7.012;2023-04-25T12:29:19;3.87;;;1.67;;
18580;SDS011;9420;50.876;7.012;2023-04-25T12:31:49;4.37;;;1.37;;
18580;SDS011;9420;50.876;7.012;2023-04-25T12:34:18;4.03;;;1.60;;
18580;SDS011;9420;50.876;7.012;2023-04-25T12:36:46;4.63;;;1.77;;
18580;SDS011;9420;50.876;7.012;2023-04-25T12:39:18;4.77;;;1.30;;
18580;SDS011;9420;50.876;7.012;2023-04-25T12:41:47;11.77;;;2.10;;
18580;SDS011;9420;50.876;7.012;2023-04-25T12:44:15;3.27;;;1.30;;
18580;SDS011;9420;50.876;7.012;2023-04-25T12:46:45;4.40;;;1.00;;
18580;SDS011;9420;50.876;7.012;2023-04-25T12:49:13;8.70;;;1.50;;
18580;SDS011;9420;50.876;7.012;2023-04-25T12:51:40;8.13;;;1.70;;
18580;SDS011;9420;50.876;7.012;2023-04-25T12:54:08;2.43;;;1.10;;
18580;SDS011;9420;50.876;7.012;2023-04-25T12:56:36;5.37;;;1.60;;
18580;SDS011;9420;50.876;7.012;2023-04-25T12:59:04;5.73;;;2.30;;
18580;SDS011;9420;50.876;7.012;2023-04-25T13:01:31;5.20;;;1.70;;
18580;SDS011;9420;50.876;7.012;2023-04-25T13:03:58;7.93;;;1.50;;
18580;SDS011;9420;50.876;7.012;2023-04-25T13:06:25;5.13;;;1.77;;
18580;SDS011;9420;50.876;7.012;2023-04-25T13:08:52;4.63;;;1.30;;
18580;SDS011;9420;50.876;7.012;2023-04-25T13:11:19;9.47;;;1.97;;
18580;SDS011;9420;50.876;7.012;2023-04-25T13:13:47;9.53;;;1.37;;
18580;SDS011;9420;50.876;7.012;2023-04-25T13:16:14;4.33;;;2.00;;
18580;SDS011;9420;50.876;7.012;2023-04-25T13:18:42;5.13;;;2.03;;
18580;SDS011;9420;50.876;7.012;2023-04-25T13:21:09;7.80;;;1.93;;
18580;SDS011;9420;50.876;7.012;2023-04-25T13:23:37;5.30;;;1.77;;
18580;SDS011;9420;50.876;7.012;2023-04-25T13:26:05;7.87;;;2.70;;
18580;SDS011;9420;50.876;7.012;2023-04-25T13:28:32;7.77;;;1.57;;
18580;SDS011;9420;50.876;7.012;2023-04-25T13:31:01;4.57;;;2.10;;
18580;SDS011;9420;50.876;7.012;2023-04-25T13:33:28;2.63;;;1.40;;
18580;SDS011;9420;50.876;7.012;2023-04-25T13:35:55;4.70;;;1.37;;
18580;SDS011;9420;50.876;7.012;2023-04-25T13:38:22;3.40;;;1.47;;
18580;SDS011;9420;50.876;7.012;2023-04-25T13:40:52;3.47;;;1.30;;
18580;SDS011;9420;50.876;7.012;2023-04-25T13:43:19;4.07;;;1.70;;
18580;SDS011;9420;50.876;7.012;2023-04-25T13:45:47;5.30;;;1.90;;
18580;SDS011;9420;50.876;7.012;2023-04-25T13:48:18;4.77;;;1.40;;
18580;SDS011;9420;50.876;7.012;2023-04-25T13:50:45;9.37;;;1.73;;
18580;SDS011;9420;50.876;7.012;2023-04-25T13:53:13;4.27;;;1.73;;
18580;SDS011;9420;50.876;7.012;2023-04-25T13:55:40;3.63;;;1.00;;
18580;SDS011;9420;50.876;7.012;2023-04-25T13:58:07;8.47;;;1.80;;
18580;SDS011;9420;50.876;7.012;2023-04-25T14:00:35;4.03;;;1.37;;
18580;SDS011;9420;50.876;7.012;2023-04-25T14:03:05;2.73;;;1.23;;
18580;SDS011;9420;50.876;7.012;2023-04-25T14:05:36;4.60;;;1.20;;
18580;SDS011;9420;50.876;7.012;2023-04-25T14:08:07;4.37;;;1.50;;
18580;SDS011;9420;50.876;7.012;2023-04-25T14:10:36;5.07;;;1.27;;
18580;SDS011;9420;50.876;7.012;2023-04-25T14:13:04;2.37;;;1.17;;
18580;SDS011;9420;50.876;7.012;2023-04-25T14:15:32;3.30;;;1.47;;
18580;SDS011;9420;50.876;7.012;2023-04-25T14:17:59;2.23;;;0.80;;
18580;SDS011;9420;50.876;7.012;2023-04-25T14:20:27;3.90;;;0.90;;
18580;SDS011;9420;50.876;7.012;2023-04-25T14:22:56;4.33;;;1.60;;
18580;SDS011;9420;50.876;7.012;2023-04-25T14:25:24;3.00;;;1.10;;
18580;SDS011;9420;50.876;7.012;2023-04-25T14:27:52;5.40;;;1.40;;
18580;SDS011;9420;50.876;7.012;2023-04-25T14:30:19;3.53;;;1.13;;
18580;SDS011;9420;50.876;7.012;2023-04-25T14:32:48;3.93;;;1.63;;
18580;SDS011;9420;50.876;7.012;2023-04-25T14:35:16;2.20;;;0.87;;
18580;SDS011;9420;50.876;7.012;2023-04-25T14:37:43;3.33;;;1.07;;
18580;SDS011;9420;50.876;7.012;2023-04-25T14:40:12;4.47;;;1.47;;
18580;SDS011;9420;50.876;7.012;2023-04-25T14:42:40;2.80;;;1.10;;
18580;SDS011;9420;50.876;7.012;2023-04-25T14:45:08;2.33;;;1.00;;
18580;SDS011;9420;50.876;7.012;2023-04-25T14:47:36;3.07;;;1.20;;
18580;SDS011;9420;50.876;7.012;2023-04-25T14:50:04;1.07;;;0.90;;
18580;SDS011;9420;50.876;7.012;2023-04-25T14:52:32;2.17;;;1.10;;
18580;SDS011;9420;50.876;7.012;2023-04-25T14:54:59;1.67;;;0.60;;
18580;SDS011;9420;50.876;7.012;2023-04-25T14:57:32;2.37;;;0.80;;
18580;SDS011;9420;50.876;7.012;2023-04-25T14:59:59;3.63;;;0.87;;
18580;SDS011;9420;50.876;7.012;2023-04-25T15:02:30;2.10;;;0.73;;
18580;SDS011;9420;50.876;7.012;2023-04-25T15:04:57;2.97;;;0.87;;
18580;SDS011;9420;50.876;7.012;2023-04-25T15:07:25;2.33;;;0.70;;